createdAt,value
2015-07-22T00:00:06.364Z,74612
2015-07-22T00:00:18.708Z,74611
2015-07-22T00:00:31.052Z,74610
2015-07-22T00:00:43.398Z,74610
2015-07-22T00:00:55.757Z,74614
2015-07-22T00:01:08.101Z,74616
2015-07-22T00:01:20.444Z,74615
2015-07-22T00:01:32.804Z,74610
2015-07-22T00:01:45.180Z,74610
2015-07-22T00:01:57.555Z,74612
2015-07-22T00:02:09.930Z,74608
2015-07-22T00:02:22.305Z,74610
2015-07-22T00:02:34.680Z,74614
2015-07-22T00:02:47.058Z,74608
2015-07-22T00:02:59.417Z,74606
2015-07-22T00:03:11.792Z,74611
2015-07-22T00:03:24.136Z,74601
2015-07-22T00:03:36.480Z,74608
2015-07-22T00:03:48.824Z,74606
2015-07-22T00:04:01.168Z,74610
2015-07-22T00:04:13.512Z,74610
2015-07-22T00:04:25.856Z,74609
2015-07-22T00:04:38.199Z,74610
2015-07-22T00:04:50.545Z,74609
2015-07-22T00:05:03.092Z,74609
2015-07-22T00:05:15.592Z,74610
2015-07-22T00:05:27.780Z,74610
2015-07-22T00:05:40.108Z,74607
2015-07-22T00:05:52.454Z,74610
2015-07-22T00:06:04.798Z,74610
2015-07-22T00:06:17.142Z,74610
2015-07-22T00:06:29.486Z,74602
2015-07-22T00:06:41.845Z,74607
2015-07-22T00:06:54.190Z,74609
2015-07-22T00:07:06.534Z,74611
2015-07-22T00:07:18.893Z,74603
2015-07-22T00:07:31.268Z,74605
2015-07-22T00:07:42.940Z,74607
2015-07-22T00:07:55.317Z,74608
2015-07-22T00:08:07.676Z,74607
2015-07-22T00:08:20.067Z,74612
2015-07-22T00:08:32.426Z,74605
2015-07-22T00:08:44.770Z,74605
2015-07-22T00:08:57.116Z,74606
2015-07-22T00:09:09.459Z,74611
2015-07-22T00:09:21.803Z,74607
2015-07-22T00:09:34.131Z,74605
2015-07-22T00:09:46.491Z,74605
2015-07-22T00:09:58.821Z,74606
2015-07-22T00:10:11.165Z,74609
2015-07-22T00:10:23.508Z,74608
2015-07-22T00:10:35.868Z,74609
2015-07-22T00:10:48.211Z,74608
2015-07-22T00:11:00.557Z,74601
2015-07-22T00:11:12.885Z,74604
2015-07-22T00:11:25.229Z,74604
2015-07-22T00:11:37.573Z,74604
2015-07-22T00:11:49.901Z,74606
2015-07-22T00:12:02.247Z,74606
2015-07-22T00:12:14.590Z,74602
2015-07-22T00:12:26.950Z,74604
2015-07-22T00:12:39.278Z,74602
2015-07-22T00:12:51.622Z,74600
2015-07-22T00:13:04.014Z,74606
2015-07-22T00:13:16.374Z,74601
2015-07-22T00:13:28.764Z,74599
2015-07-22T00:13:41.124Z,74603
2015-07-22T00:13:53.514Z,74604
2015-07-22T00:14:05.876Z,74605
2015-07-22T00:14:18.251Z,74602
2015-07-22T00:14:30.594Z,74603
2015-07-22T00:14:42.938Z,74605
2015-07-22T00:14:55.266Z,74596
2015-07-22T00:15:07.596Z,74602
2015-07-22T00:15:19.956Z,74602
2015-07-22T00:15:32.284Z,74598
2015-07-22T00:15:44.628Z,74606
2015-07-22T00:15:56.971Z,74597
2015-07-22T00:16:09.317Z,74605
2015-07-22T00:16:21.661Z,74596
2015-07-22T00:16:34.005Z,74607
2015-07-22T00:16:46.333Z,74603
2015-07-22T00:16:58.677Z,74594
2015-07-22T00:17:11.007Z,74598
2015-07-22T00:17:23.350Z,74600
2015-07-22T00:17:35.710Z,74596
2015-07-22T00:17:48.054Z,74599
2015-07-22T00:18:00.413Z,74600
2015-07-22T00:18:12.774Z,74602
2015-07-22T00:18:25.118Z,74604
2015-07-22T00:18:37.493Z,74600
2015-07-22T00:18:49.868Z,74604
2015-07-22T00:19:02.227Z,74596
2015-07-22T00:19:14.573Z,74604
2015-07-22T00:19:26.917Z,74602
2015-07-22T00:19:39.261Z,74600
2015-07-22T00:19:51.870Z,74601
2015-07-22T00:20:04.214Z,74597
2015-07-22T00:20:16.560Z,74602
2015-07-22T00:20:28.903Z,74600
2015-07-22T00:20:41.231Z,74595
2015-07-22T00:20:53.575Z,74599
2015-07-22T00:21:05.919Z,74598
2015-07-22T00:21:18.248Z,74604
2015-07-22T00:21:30.592Z,74604
2015-07-22T00:21:42.982Z,74595
2015-07-22T00:21:55.311Z,74600
2015-07-22T00:22:07.654Z,74607
2015-07-22T00:22:20.001Z,74600
2015-07-22T00:22:32.345Z,74605
2015-07-22T00:22:44.704Z,74600
2015-07-22T00:22:57.048Z,74602
2015-07-22T00:23:09.393Z,74603
2015-07-22T00:23:21.049Z,74605
2015-07-22T00:23:33.424Z,74605
2015-07-22T00:23:45.080Z,74597
2015-07-22T00:23:56.736Z,74603
2015-07-22T00:24:09.127Z,74593
2015-07-22T00:24:21.521Z,74603
2015-07-22T00:24:33.896Z,74605
2015-07-22T00:24:46.239Z,74595
2015-07-22T00:24:58.568Z,74596
2015-07-22T00:25:10.911Z,74595
2015-07-22T00:25:23.256Z,74596
2015-07-22T00:25:35.600Z,74594
2015-07-22T00:25:47.944Z,74595
2015-07-22T00:26:00.287Z,74593
2015-07-22T00:26:12.631Z,74592
2015-07-22T00:26:24.978Z,74599
2015-07-22T00:26:37.322Z,74598
2015-07-22T00:26:49.665Z,74588
2015-07-22T00:27:02.009Z,74600
2015-07-22T00:27:14.353Z,74600
2015-07-22T00:27:26.699Z,74592
2015-07-22T00:27:39.027Z,74595
2015-07-22T00:27:51.370Z,74599
2015-07-22T00:28:03.714Z,74603
2015-07-22T00:28:16.074Z,74599
2015-07-22T00:28:28.418Z,74591
2015-07-22T00:28:40.762Z,74592
2015-07-22T00:28:53.121Z,74599
2015-07-22T00:29:05.496Z,74591
2015-07-22T00:29:17.887Z,74596
2015-07-22T00:29:30.264Z,74602
2015-07-22T00:29:42.639Z,74593
2015-07-22T00:29:55.030Z,74599
2015-07-22T00:30:07.389Z,74598
2015-07-22T00:30:19.030Z,74589
2015-07-22T00:30:31.376Z,74601
2015-07-22T00:30:43.720Z,74590
2015-07-22T00:30:56.064Z,74599
2015-07-22T00:31:08.392Z,74597
2015-07-22T00:31:20.736Z,74597
2015-07-22T00:31:33.082Z,74597
2015-07-22T00:31:45.410Z,74596
2015-07-22T00:31:57.753Z,74592
2015-07-22T00:32:10.082Z,74600
2015-07-22T00:32:22.425Z,74589
2015-07-22T00:32:34.787Z,74593
2015-07-22T00:32:46.412Z,74599
2015-07-22T00:32:58.052Z,74589
2015-07-22T00:33:10.396Z,74596
2015-07-22T00:33:22.740Z,74600
2015-07-22T00:33:35.086Z,74592
2015-07-22T00:33:47.445Z,74597
2015-07-22T00:33:59.804Z,74601
2015-07-22T00:34:12.148Z,74597
2015-07-22T00:34:24.523Z,74598
2015-07-22T00:34:36.899Z,74600
2015-07-22T00:34:49.274Z,74600
2015-07-22T00:35:01.618Z,74599
2015-07-22T00:35:13.993Z,74595
2015-07-22T00:35:26.383Z,74597
2015-07-22T00:35:38.760Z,74599
2015-07-22T00:35:51.104Z,74594
2015-07-22T00:36:03.432Z,74602
2015-07-22T00:36:15.776Z,74599
2015-07-22T00:36:28.120Z,74595
2015-07-22T00:36:40.466Z,74602
2015-07-22T00:36:52.794Z,74597
2015-07-22T00:37:05.137Z,74599
2015-07-22T00:37:17.309Z,74599
2015-07-22T00:37:29.653Z,74596
2015-07-22T00:37:41.999Z,74600
2015-07-22T00:37:54.343Z,74605
2015-07-22T00:38:06.686Z,74598
2015-07-22T00:38:18.327Z,74599
2015-07-22T00:38:30.655Z,74602
2015-07-22T00:38:43.001Z,74597
2015-07-22T00:38:55.329Z,74600
2015-07-22T00:39:07.673Z,74601
2015-07-22T00:39:20.048Z,74596
2015-07-22T00:39:32.391Z,74601
2015-07-22T00:39:44.737Z,74602
2015-07-22T00:39:57.112Z,74596
2015-07-22T00:40:09.472Z,74603
2015-07-22T00:40:21.847Z,74599
2015-07-22T00:40:34.222Z,74595
2015-07-22T00:40:46.583Z,74605
2015-07-22T00:40:58.974Z,74601
2015-07-22T00:41:11.364Z,74598
2015-07-22T00:41:23.755Z,74607
2015-07-22T00:41:36.101Z,74594
2015-07-22T00:41:48.444Z,74600
2015-07-22T00:42:00.772Z,74603
2015-07-22T00:42:13.132Z,74599
2015-07-22T00:42:25.476Z,74605
2015-07-22T00:42:37.103Z,74607
2015-07-22T00:42:49.446Z,74598
2015-07-22T00:43:01.790Z,74599
2015-07-22T00:43:14.134Z,74603
2015-07-22T00:43:26.493Z,74600
2015-07-22T00:43:38.870Z,74608
2015-07-22T00:43:51.214Z,74604
2015-07-22T00:44:03.573Z,74604
2015-07-22T00:44:15.917Z,74604
2015-07-22T00:44:28.245Z,74595
2015-07-22T00:44:40.591Z,74600
2015-07-22T00:44:52.950Z,74601
2015-07-22T00:45:05.294Z,74600
2015-07-22T00:45:17.638Z,74600
2015-07-22T00:45:29.982Z,74600
2015-07-22T00:45:42.359Z,74601
2015-07-22T00:45:54.734Z,74602
2015-07-22T00:46:07.109Z,74600
2015-07-22T00:46:18.765Z,74601
2015-07-22T00:46:31.140Z,74598
2015-07-22T00:46:43.516Z,74600
2015-07-22T00:46:55.860Z,74605
2015-07-22T00:47:08.188Z,74598
2015-07-22T00:47:20.531Z,74599
2015-07-22T00:47:32.860Z,74603
2015-07-22T00:47:45.206Z,74600
2015-07-22T00:47:57.550Z,74595
2015-07-22T00:48:09.878Z,74604
2015-07-22T00:48:22.238Z,74599
2015-07-22T00:48:34.566Z,74597
2015-07-22T00:48:46.911Z,74601
2015-07-22T00:48:59.255Z,74594
2015-07-22T00:49:11.599Z,74601
2015-07-22T00:49:23.943Z,74603
2015-07-22T00:49:36.271Z,74599
2015-07-22T00:49:48.617Z,74600
2015-07-22T00:50:00.960Z,74596
2015-07-22T00:50:13.320Z,74604
2015-07-22T00:50:25.679Z,74604
2015-07-22T00:50:38.038Z,74595
2015-07-22T00:50:50.400Z,74606
2015-07-22T00:51:02.744Z,74601
2015-07-22T00:51:15.103Z,74593
2015-07-22T00:51:27.462Z,74603
2015-07-22T00:51:39.837Z,74602
2015-07-22T00:51:52.213Z,74597
2015-07-22T00:52:04.573Z,74596
2015-07-22T00:52:16.979Z,74602
2015-07-22T00:52:29.307Z,74597
2015-07-22T00:52:41.651Z,74597
2015-07-22T00:52:53.997Z,74596
2015-07-22T00:53:05.622Z,74602
2015-07-22T00:53:17.965Z,74596
2015-07-22T00:53:30.309Z,74595
2015-07-22T00:53:42.668Z,74602
2015-07-22T00:53:55.000Z,74598
2015-07-22T00:54:07.343Z,74598
2015-07-22T00:54:19.703Z,74595
2015-07-22T00:54:32.031Z,74596
2015-07-22T00:54:44.375Z,74596
2015-07-22T00:54:56.719Z,74599
2015-07-22T00:55:09.063Z,74600
2015-07-22T00:55:21.422Z,74601
2015-07-22T00:55:33.751Z,74600
2015-07-22T00:55:46.094Z,74601
2015-07-22T00:55:58.456Z,74598
2015-07-22T00:56:10.799Z,74593
2015-07-22T00:56:23.143Z,74597
2015-07-22T00:56:35.518Z,74593
2015-07-22T00:56:47.878Z,74597
2015-07-22T00:57:00.255Z,74602
2015-07-22T00:57:12.614Z,74597
2015-07-22T00:57:25.005Z,74599
2015-07-22T00:57:37.380Z,74596
2015-07-22T00:57:49.739Z,74596
2015-07-22T00:58:02.069Z,74598
2015-07-22T00:58:14.413Z,74592
2015-07-22T00:58:26.757Z,74600
2015-07-22T00:58:39.100Z,74595
2015-07-22T00:58:51.446Z,74590
2015-07-22T00:59:03.790Z,74598
2015-07-22T00:59:16.134Z,74593
2015-07-22T00:59:28.462Z,74590
2015-07-22T00:59:40.805Z,74593
2015-07-22T00:59:53.151Z,74593
2015-07-22T01:00:05.495Z,74597
2015-07-22T01:00:17.839Z,74596
2015-07-22T01:00:30.198Z,74595
2015-07-22T01:00:42.542Z,74599
2015-07-22T01:00:54.872Z,74599
2015-07-22T01:01:07.216Z,74594
2015-07-22T01:01:19.559Z,74593
2015-07-22T01:01:31.919Z,74595
2015-07-22T01:01:44.263Z,74597
2015-07-22T01:01:56.624Z,74597
2015-07-22T01:02:09.015Z,74593
2015-07-22T01:02:21.405Z,74592
2015-07-22T01:02:33.780Z,74599
2015-07-22T01:02:46.155Z,74595
2015-07-22T01:02:58.548Z,74591
2015-07-22T01:03:10.923Z,74595
2015-07-22T01:03:22.595Z,74595
2015-07-22T01:03:34.923Z,74597
2015-07-22T01:03:47.267Z,74596
2015-07-22T01:03:59.612Z,74592
2015-07-22T01:04:11.940Z,74595
2015-07-22T01:04:24.284Z,74595
2015-07-22T01:04:36.628Z,74598
2015-07-22T01:04:48.972Z,74594
2015-07-22T01:05:01.302Z,74601
2015-07-22T01:05:13.661Z,74594
2015-07-22T01:05:26.005Z,74593
2015-07-22T01:05:38.177Z,74592
2015-07-22T01:05:50.521Z,74592
2015-07-22T01:06:02.851Z,74593
2015-07-22T01:06:15.194Z,74589
2015-07-22T01:06:27.538Z,74595
2015-07-22T01:06:39.882Z,74592
2015-07-22T01:06:52.210Z,74591
2015-07-22T01:07:04.571Z,74587
2015-07-22T01:07:16.931Z,74593
2015-07-22T01:07:29.306Z,74596
2015-07-22T01:07:41.665Z,74598
2015-07-22T01:07:54.056Z,74589
2015-07-22T01:08:06.432Z,74588
2015-07-22T01:08:18.807Z,74591
2015-07-22T01:08:31.182Z,74597
2015-07-22T01:08:43.541Z,74594
2015-07-22T01:08:55.916Z,74594
2015-07-22T01:09:08.263Z,74594
2015-07-22T01:09:19.872Z,74588
2015-07-22T01:09:32.216Z,74591
2015-07-22T01:09:44.841Z,74594
2015-07-22T01:09:57.185Z,74594
2015-07-22T01:10:09.515Z,74595
2015-07-22T01:10:21.859Z,74593
2015-07-22T01:10:34.207Z,74589
2015-07-22T01:10:46.551Z,74593
2015-07-22T01:10:58.895Z,74589
2015-07-22T01:11:11.240Z,74585
2015-07-22T01:11:23.583Z,74587
2015-07-22T01:11:35.927Z,74586
2015-07-22T01:11:48.271Z,74588
2015-07-22T01:12:00.615Z,74589
2015-07-22T01:12:12.960Z,74587
2015-07-22T01:12:25.304Z,74591
2015-07-22T01:12:37.648Z,74584
2015-07-22T01:12:49.992Z,74584
2015-07-22T01:13:02.335Z,74592
2015-07-22T01:13:14.698Z,74585
2015-07-22T01:13:27.088Z,74583
2015-07-22T01:13:39.463Z,74580
2015-07-22T01:13:51.854Z,74582
2015-07-22T01:14:04.213Z,74579
2015-07-22T01:14:16.621Z,74585
2015-07-22T01:14:28.996Z,74584
2015-07-22T01:14:40.636Z,74580
2015-07-22T01:14:52.980Z,74581
2015-07-22T01:15:05.324Z,74586
2015-07-22T01:15:17.655Z,74584
2015-07-22T01:15:29.999Z,74579
2015-07-22T01:15:42.342Z,74586
2015-07-22T01:15:54.670Z,74587
2015-07-22T01:16:07.014Z,74576
2015-07-22T01:16:19.360Z,74583
2015-07-22T01:16:31.719Z,74583
2015-07-22T01:16:44.047Z,74588
2015-07-22T01:16:56.376Z,74585
2015-07-22T01:17:08.735Z,74581
2015-07-22T01:17:21.096Z,74585
2015-07-22T01:17:33.440Z,74580
2015-07-22T01:17:45.784Z,74579
2015-07-22T01:17:58.128Z,74581
2015-07-22T01:18:10.471Z,74581
2015-07-22T01:18:22.833Z,74580
2015-07-22T01:18:35.176Z,74585
2015-07-22T01:18:47.536Z,74581
2015-07-22T01:18:59.895Z,74576
2015-07-22T01:19:12.270Z,74579
2015-07-22T01:19:24.646Z,74577
2015-07-22T01:19:37.037Z,74581
2015-07-22T01:19:49.427Z,74580
2015-07-22T01:20:01.787Z,74582
2015-07-22T01:20:13.459Z,74578
2015-07-22T01:20:25.821Z,74584
2015-07-22T01:20:38.243Z,74578
2015-07-22T01:20:50.587Z,74580
2015-07-22T01:21:02.915Z,74578
2015-07-22T01:21:15.259Z,74582
2015-07-22T01:21:27.603Z,74579
2015-07-22T01:21:39.947Z,74577
2015-07-22T01:21:52.275Z,74580
2015-07-22T01:22:04.619Z,74577
2015-07-22T01:22:16.978Z,74577
2015-07-22T01:22:29.325Z,74581
2015-07-22T01:22:41.669Z,74578
2015-07-22T01:22:54.013Z,74577
2015-07-22T01:23:06.356Z,74576
2015-07-22T01:23:17.981Z,74578
2015-07-22T01:23:30.327Z,74581
2015-07-22T01:23:42.671Z,74579
2015-07-22T01:23:54.999Z,74578
2015-07-22T01:24:07.358Z,74579
2015-07-22T01:24:19.702Z,74581
2015-07-22T01:24:32.048Z,74577
2015-07-22T01:24:44.392Z,74580
2015-07-22T01:24:56.782Z,74578
2015-07-22T01:25:09.157Z,74581
2015-07-22T01:25:21.517Z,74581
2015-07-22T01:25:33.908Z,74582
2015-07-22T01:25:46.299Z,74587
2015-07-22T01:25:58.643Z,74579
2015-07-22T01:26:10.986Z,74577
2015-07-22T01:26:23.330Z,74577
2015-07-22T01:26:35.676Z,74579
2015-07-22T01:26:48.020Z,74574
2015-07-22T01:27:00.363Z,74575
2015-07-22T01:27:12.691Z,74570
2015-07-22T01:27:25.035Z,74573
2015-07-22T01:27:37.382Z,74577
2015-07-22T01:27:49.710Z,74575
2015-07-22T01:28:02.054Z,74579
2015-07-22T01:28:14.398Z,74574
2015-07-22T01:28:26.741Z,74577
2015-07-22T01:28:39.087Z,74572
2015-07-22T01:28:51.415Z,74576
2015-07-22T01:29:03.743Z,74576
2015-07-22T01:29:16.103Z,74580
2015-07-22T01:29:28.446Z,74571
2015-07-22T01:29:40.792Z,74574
2015-07-22T01:29:53.136Z,74580
2015-07-22T01:30:05.480Z,74578
2015-07-22T01:30:17.855Z,74576
2015-07-22T01:30:30.230Z,74580
2015-07-22T01:30:42.590Z,74574
2015-07-22T01:30:54.949Z,74576
2015-07-22T01:31:07.324Z,74574
2015-07-22T01:31:19.699Z,74572
2015-07-22T01:31:32.043Z,74578
2015-07-22T01:31:44.405Z,74574
2015-07-22T01:31:56.748Z,74569
2015-07-22T01:32:09.076Z,74574
2015-07-22T01:32:21.420Z,74571
2015-07-22T01:32:33.780Z,74567
2015-07-22T01:32:46.125Z,74571
2015-07-22T01:32:58.453Z,74571
2015-07-22T01:33:10.797Z,74568
2015-07-22T01:33:23.157Z,74570
2015-07-22T01:33:35.500Z,74571
2015-07-22T01:33:47.846Z,74568
2015-07-22T01:34:00.174Z,74573
2015-07-22T01:34:12.502Z,74574
2015-07-22T01:34:24.877Z,74570
2015-07-22T01:34:37.205Z,74571
2015-07-22T01:34:48.832Z,74566
2015-07-22T01:35:01.176Z,74572
2015-07-22T01:35:13.520Z,74568
2015-07-22T01:35:25.879Z,74569
2015-07-22T01:35:38.239Z,74573
2015-07-22T01:35:50.600Z,74568
2015-07-22T01:36:02.959Z,74569
2015-07-22T01:36:15.334Z,74565
2015-07-22T01:36:27.694Z,74574
2015-07-22T01:36:40.053Z,74569
2015-07-22T01:36:52.446Z,74570
2015-07-22T01:37:04.805Z,74570
2015-07-22T01:37:17.196Z,74571
2015-07-22T01:37:29.555Z,74568
2015-07-22T01:37:41.899Z,74569
2015-07-22T01:37:54.229Z,74572
2015-07-22T01:38:06.573Z,74571
2015-07-22T01:38:18.917Z,74574
2015-07-22T01:38:31.260Z,74568
2015-07-22T01:38:43.604Z,74563
2015-07-22T01:38:55.949Z,74574
2015-07-22T01:39:08.277Z,74568
2015-07-22T01:39:20.621Z,74567
2015-07-22T01:39:32.949Z,74569
2015-07-22T01:39:45.293Z,74566
2015-07-22T01:39:57.639Z,74566
2015-07-22T01:40:09.983Z,74571
2015-07-22T01:40:22.327Z,74565
2015-07-22T01:40:34.671Z,74569
2015-07-22T01:40:47.014Z,74569
2015-07-22T01:40:59.376Z,74561
2015-07-22T01:41:11.719Z,74563
2015-07-22T01:41:24.063Z,74565
2015-07-22T01:41:36.423Z,74562
2015-07-22T01:41:48.813Z,74566
2015-07-22T01:42:01.190Z,74564
2015-07-22T01:42:13.565Z,74557
2015-07-22T01:42:25.940Z,74571
2015-07-22T01:42:38.315Z,74561
2015-07-22T01:42:50.690Z,74566
2015-07-22T01:43:03.035Z,74567
2015-07-22T01:43:15.379Z,74559
2015-07-22T01:43:27.707Z,74571
2015-07-22T01:43:40.051Z,74566
2015-07-22T01:43:52.394Z,74560
2015-07-22T01:44:04.740Z,74566
2015-07-22T01:44:17.084Z,74564
2015-07-22T01:44:29.443Z,74564
2015-07-22T01:44:41.787Z,74571
2015-07-22T01:44:54.131Z,74563
2015-07-22T01:45:06.493Z,74562
2015-07-22T01:45:18.852Z,74559
2015-07-22T01:45:31.212Z,74563
2015-07-22T01:45:43.540Z,74562
2015-07-22T01:45:55.884Z,74565
2015-07-22T01:46:08.229Z,74573
2015-07-22T01:46:20.573Z,74570
2015-07-22T01:46:32.933Z,74563
2015-07-22T01:46:45.292Z,74570
2015-07-22T01:46:57.636Z,74567
2015-07-22T01:47:09.981Z,74573
2015-07-22T01:47:22.372Z,74569
2015-07-22T01:47:34.747Z,74567
2015-07-22T01:47:47.091Z,74565
2015-07-22T01:47:59.466Z,74564
2015-07-22T01:48:11.827Z,74563
2015-07-22T01:48:24.187Z,74569
2015-07-22T01:48:36.546Z,74567
2015-07-22T01:48:48.874Z,74558
2015-07-22T01:49:01.218Z,74567
2015-07-22T01:49:13.547Z,74562
2015-07-22T01:49:25.891Z,74568
2015-07-22T01:49:38.219Z,74564
2015-07-22T01:49:50.547Z,74563
2015-07-22T01:50:02.891Z,74561
2015-07-22T01:50:15.237Z,74563
2015-07-22T01:50:27.566Z,74566
2015-07-22T01:50:39.909Z,74572
2015-07-22T01:50:52.237Z,74565
2015-07-22T01:51:04.581Z,74563
2015-07-22T01:51:16.910Z,74571
2015-07-22T01:51:29.254Z,74568
2015-07-22T01:51:41.582Z,74570
2015-07-22T01:51:53.926Z,74573
2015-07-22T01:52:06.270Z,74565
2015-07-22T01:52:18.616Z,74575
2015-07-22T01:52:30.960Z,74562
2015-07-22T01:52:43.320Z,74569
2015-07-22T01:52:55.679Z,74566
2015-07-22T01:53:08.038Z,74565
2015-07-22T01:53:20.399Z,74562
2015-07-22T01:53:32.758Z,74559
2015-07-22T01:53:45.117Z,74563
2015-07-22T01:53:57.477Z,74557
2015-07-22T01:54:09.855Z,74562
2015-07-22T01:54:22.199Z,74563
2015-07-22T01:54:34.527Z,74554
2015-07-22T01:54:46.870Z,74563
2015-07-22T01:54:59.214Z,74559
2015-07-22T01:55:11.559Z,74564
2015-07-22T01:55:23.903Z,74565
2015-07-22T01:55:36.246Z,74561
2015-07-22T01:55:48.575Z,74563
2015-07-22T01:56:00.918Z,74563
2015-07-22T01:56:13.264Z,74561
2015-07-22T01:56:25.608Z,74563
2015-07-22T01:56:37.936Z,74559
2015-07-22T01:56:50.280Z,74559
2015-07-22T01:57:02.623Z,74558
2015-07-22T01:57:14.969Z,74560
2015-07-22T01:57:27.313Z,74561
2015-07-22T01:57:38.954Z,74559
2015-07-22T01:57:51.313Z,74559
2015-07-22T01:58:03.657Z,74567
2015-07-22T01:58:16.002Z,74563
2015-07-22T01:58:28.362Z,74563
2015-07-22T01:58:40.721Z,74561
2015-07-22T01:58:53.096Z,74556
2015-07-22T01:59:05.471Z,74565
2015-07-22T01:59:17.849Z,74562
2015-07-22T01:59:29.521Z,74554
2015-07-22T01:59:41.896Z,74560
2015-07-22T01:59:54.255Z,74565
2015-07-22T02:00:06.599Z,74556
2015-07-22T02:00:18.225Z,74564
2015-07-22T02:00:30.553Z,74557
2015-07-22T02:00:42.897Z,74557
2015-07-22T02:00:55.256Z,74562
2015-07-22T02:01:07.585Z,74560
2015-07-22T02:01:19.930Z,74560
2015-07-22T02:01:32.274Z,74555
2015-07-22T02:01:44.602Z,74561
2015-07-22T02:01:56.946Z,74559
2015-07-22T02:02:09.274Z,74555
2015-07-22T02:02:21.620Z,74562
2015-07-22T02:02:33.979Z,74561
2015-07-22T02:02:46.307Z,74559
2015-07-22T02:02:58.651Z,74561
2015-07-22T02:03:10.979Z,74562
2015-07-22T02:03:23.325Z,74557
2015-07-22T02:03:35.684Z,74559
2015-07-22T02:03:47.325Z,74561
2015-07-22T02:03:59.684Z,74563
2015-07-22T02:04:12.044Z,74561
2015-07-22T02:04:24.436Z,74563
2015-07-22T02:04:36.811Z,74562
2015-07-22T02:04:49.171Z,74559
2015-07-22T02:05:01.546Z,74563
2015-07-22T02:05:13.983Z,74558
2015-07-22T02:05:26.360Z,74557
2015-07-22T02:05:38.766Z,74562
2015-07-22T02:05:51.110Z,74562
2015-07-22T02:06:03.454Z,74554
2015-07-22T02:06:15.782Z,74558
2015-07-22T02:06:28.128Z,74565
2015-07-22T02:06:40.472Z,74563
2015-07-22T02:06:52.815Z,74557
2015-07-22T02:07:05.159Z,74558
2015-07-22T02:07:17.503Z,74567
2015-07-22T02:07:29.849Z,74564
2015-07-22T02:07:42.192Z,74556
2015-07-22T02:07:54.520Z,74562
2015-07-22T02:08:06.864Z,74564
2015-07-22T02:08:19.208Z,74560
2015-07-22T02:08:31.554Z,74568
2015-07-22T02:08:43.882Z,74562
2015-07-22T02:08:56.226Z,74563
2015-07-22T02:09:08.569Z,74566
2015-07-22T02:09:20.929Z,74553
2015-07-22T02:09:33.274Z,74565
2015-07-22T02:09:45.634Z,74563
2015-07-22T02:09:58.009Z,74557
2015-07-22T02:10:10.384Z,74561
2015-07-22T02:10:22.759Z,74557
2015-07-22T02:10:35.120Z,74559
2015-07-22T02:10:47.558Z,74565
2015-07-22T02:10:59.917Z,74558
2015-07-22T02:11:12.292Z,74561
2015-07-22T02:11:24.636Z,74558
2015-07-22T02:11:36.982Z,74553
2015-07-22T02:11:49.310Z,74557
2015-07-22T02:12:01.653Z,74549
2015-07-22T02:12:13.982Z,74561
2015-07-22T02:12:26.325Z,74559
2015-07-22T02:12:38.671Z,74556
2015-07-22T02:12:51.015Z,74565
2015-07-22T02:13:03.624Z,74552
2015-07-22T02:13:15.968Z,74561
2015-07-22T02:13:28.312Z,74558
2015-07-22T02:13:40.642Z,74557
2015-07-22T02:13:53.001Z,74555
2015-07-22T02:14:05.345Z,74546
2015-07-22T02:14:17.673Z,74558
2015-07-22T02:14:30.017Z,74557
2015-07-22T02:14:42.362Z,74548
2015-07-22T02:14:54.721Z,74558
2015-07-22T02:15:07.080Z,74551
2015-07-22T02:15:19.440Z,74553
2015-07-22T02:15:31.783Z,74555
2015-07-22T02:15:44.160Z,74550
2015-07-22T02:15:56.520Z,74558
2015-07-22T02:16:08.879Z,74557
2015-07-22T02:16:21.239Z,74550
2015-07-22T02:16:33.629Z,74563
2015-07-22T02:16:46.007Z,74554
2015-07-22T02:16:58.367Z,74557
2015-07-22T02:17:10.742Z,74557
2015-07-22T02:17:21.663Z,74555
2015-07-22T02:17:34.007Z,74556
2015-07-22T02:17:46.352Z,74549
2015-07-22T02:17:58.696Z,74553
2015-07-22T02:18:11.039Z,74551
2015-07-22T02:18:23.368Z,74553
2015-07-22T02:18:35.711Z,74553
2015-07-22T02:18:48.058Z,74551
2015-07-22T02:19:00.386Z,74557
2015-07-22T02:19:12.714Z,74547
2015-07-22T02:19:25.058Z,74551
2015-07-22T02:19:37.386Z,74553
2015-07-22T02:19:49.747Z,74553
2015-07-22T02:20:02.075Z,74550
2015-07-22T02:20:14.418Z,74548
2015-07-22T02:20:26.762Z,74554
2015-07-22T02:20:39.106Z,74551
2015-07-22T02:20:51.452Z,74556
2015-07-22T02:21:03.795Z,74551
2015-07-22T02:21:16.155Z,74555
2015-07-22T02:21:28.530Z,74553
2015-07-22T02:21:40.905Z,74553
2015-07-22T02:21:53.282Z,74552
2015-07-22T02:22:04.938Z,74550
2015-07-22T02:22:17.313Z,74554
2015-07-22T02:22:29.688Z,74549
2015-07-22T02:22:42.032Z,74549
2015-07-22T02:22:54.237Z,74551
2015-07-22T02:23:06.581Z,74544
2015-07-22T02:23:18.909Z,74551
2015-07-22T02:23:31.253Z,74548
2015-07-22T02:23:43.596Z,74550
2015-07-22T02:23:55.942Z,74551
2015-07-22T02:24:08.286Z,74539
2015-07-22T02:24:20.630Z,74548
2015-07-22T02:24:32.973Z,74549
2015-07-22T02:24:45.317Z,74548
2015-07-22T02:24:57.647Z,74546
2015-07-22T02:25:09.975Z,74548
2015-07-22T02:25:22.319Z,74547
2015-07-22T02:25:34.663Z,74547
2015-07-22T02:25:47.272Z,74546
2015-07-22T02:25:59.602Z,74545
2015-07-22T02:26:11.962Z,74548
2015-07-22T02:26:24.321Z,74549
2015-07-22T02:26:36.680Z,74551
2015-07-22T02:26:49.040Z,74547
2015-07-22T02:27:01.417Z,74547
2015-07-22T02:27:13.792Z,74541
2015-07-22T02:27:26.167Z,74550
2015-07-22T02:27:38.542Z,74547
2015-07-22T02:27:50.919Z,74549
2015-07-22T02:28:03.294Z,74545
2015-07-22T02:28:15.638Z,74544
2015-07-22T02:28:27.997Z,74547
2015-07-22T02:28:40.341Z,74542
2015-07-22T02:28:52.671Z,74547
2015-07-22T02:29:04.999Z,74543
2015-07-22T02:29:17.343Z,74543
2015-07-22T02:29:29.671Z,74546
2015-07-22T02:29:42.015Z,74545
2015-07-22T02:29:54.376Z,74538
2015-07-22T02:30:06.720Z,74548
2015-07-22T02:30:19.063Z,74545
2015-07-22T02:30:31.407Z,74545
2015-07-22T02:30:43.032Z,74541
2015-07-22T02:30:55.378Z,74547
2015-07-22T02:31:07.722Z,74550
2015-07-22T02:31:20.050Z,74543
2015-07-22T02:31:32.409Z,74545
2015-07-22T02:31:44.753Z,74540
2015-07-22T02:31:57.099Z,74544
2015-07-22T02:32:09.442Z,74536
2015-07-22T02:32:21.802Z,74543
2015-07-22T02:32:34.161Z,74545
2015-07-22T02:32:46.521Z,74546
2015-07-22T02:32:58.898Z,74550
2015-07-22T02:33:11.257Z,74542
2015-07-22T02:33:23.632Z,74545
2015-07-22T02:33:36.007Z,74544
2015-07-22T02:33:48.382Z,74541
2015-07-22T02:34:00.742Z,74550
2015-07-22T02:34:13.086Z,74546
2015-07-22T02:34:25.414Z,74543
2015-07-22T02:34:37.789Z,74545
2015-07-22T02:34:50.133Z,74543
2015-07-22T02:35:02.480Z,74547
2015-07-22T02:35:14.808Z,74542
2015-07-22T02:35:27.152Z,74545
2015-07-22T02:35:39.511Z,74541
2015-07-22T02:35:51.839Z,74544
2015-07-22T02:36:04.185Z,74545
2015-07-22T02:36:15.810Z,74544
2015-07-22T02:36:28.154Z,74546
2015-07-22T02:36:40.497Z,74543
2015-07-22T02:36:52.841Z,74547
2015-07-22T02:37:05.437Z,74543
2015-07-22T02:37:17.812Z,74541
2015-07-22T02:37:30.171Z,74542
2015-07-22T02:37:42.499Z,74541
2015-07-22T02:37:54.859Z,74544
2015-07-22T02:38:06.517Z,74542
2015-07-22T02:38:18.876Z,74543
2015-07-22T02:38:31.251Z,74543
2015-07-22T02:38:43.626Z,74549